createdAt,value
2022-09-23T00:02:37.004Z,101271.38
2022-09-23T00:07:30.694Z,101259.69
2022-09-23T00:12:28.725Z,101275.38
2022-09-23T00:17:23.859Z,101272.69
2022-09-23T00:22:17.391Z,101262.06
2022-09-23T00:27:10.867Z,101278.19
2022-09-23T00:32:11.833Z,101252.84
2022-09-23T00:37:05.153Z,101264.13
2022-09-23T00:41:58.183Z,101244.38
2022-09-23T00:46:52.317Z,101265.84
2022-09-23T00:51:59.867Z,101263.13
2022-09-23T00:56:54.128Z,101263.47
2022-09-23T01:01:53.044Z,101235.84
2022-09-23T01:06:47.186Z,101233.94
2022-09-23T01:12:10.832Z,101252.84
2022-09-23T01:17:19.905Z,101236.59
2022-09-23T01:22:49.724Z,101269.84
2022-09-23T01:28:07.714Z,101260.91
2022-09-23T01:33:06.102Z,101264.69
2022-09-23T01:38:08.528Z,101266.50
2022-09-23T01:43:10.940Z,101227.81
2022-09-23T01:48:27.178Z,101269.25
2022-09-23T01:53:33.882Z,101238.78
2022-09-23T01:58:30.066Z,101261.47
2022-09-23T02:03:32.976Z,101246.16
2022-09-23T02:08:33.012Z,101253.50
2022-09-23T02:13:33.364Z,101257.88
2022-09-23T02:18:32.404Z,101264.97
2022-09-23T02:23:36.816Z,101250.25
2022-09-23T02:28:36.524Z,101247.41
2022-09-23T02:33:58.295Z,101245.69
2022-09-23T02:39:14.109Z,101243.81
2022-09-23T02:44:15.123Z,101228.59
2022-09-23T02:49:24.251Z,101243.97
2022-09-23T02:54:23.364Z,101247.69
2022-09-23T02:59:20.340Z,101223.66
2022-09-23T03:04:43.667Z,101229.91
2022-09-23T03:09:50.247Z,101209.50
2022-09-23T03:14:43.922Z,101231.91
2022-09-23T03:20:06.131Z,101223.09
2022-09-23T03:25:06.867Z,101192.28
2022-09-23T03:30:02.638Z,101190.22
2022-09-23T03:35:03.042Z,101191.09
2022-09-23T03:40:02.816Z,101172.91
2022-09-23T03:44:58.548Z,101201.00
2022-09-23T03:49:52.678Z,101190.47
2022-09-23T03:54:47.286Z,101216.63
2022-09-23T03:59:40.627Z,101190.56
2022-09-23T04:04:34.780Z,101176.31
2022-09-23T04:09:28.567Z,101206.78
2022-09-23T04:14:23.352Z,101213.03
2022-09-23T04:19:16.745Z,101204.47
2022-09-23T04:24:10.734Z,101216.81
2022-09-23T04:29:05.780Z,101194.47
2022-09-23T04:33:59.317Z,101201.81
2022-09-23T04:38:53.381Z,101189.81
2022-09-23T04:43:46.586Z,101202.75
2022-09-23T04:48:41.463Z,101200.09
2022-09-23T04:53:35.883Z,101206.31
2022-09-23T04:58:29.640Z,101205.47
2022-09-23T05:03:24.286Z,101167.28
2022-09-23T05:08:17.779Z,101190.66
2022-09-23T05:13:11.421Z,101203.50
2022-09-23T05:18:05.392Z,101219.84
2022-09-23T05:23:00.314Z,101187.81
2022-09-23T05:27:54.519Z,101204.03
2022-09-23T05:32:47.804Z,101217.03
2022-09-23T05:37:41.715Z,101210.28
2022-09-23T05:42:35.996Z,101215.97
2022-09-23T05:47:30.362Z,101199.16
2022-09-23T05:52:26.548Z,101213.66
2022-09-23T05:57:24.949Z,101215.16
2022-09-23T06:02:17.871Z,101210.88
2022-09-23T06:07:12.277Z,101202.25
2022-09-23T06:12:07.261Z,101206.53
2022-09-23T06:17:01.562Z,101223.91
2022-09-23T06:21:54.927Z,101218.59
2022-09-23T06:26:48.775Z,101219.72
2022-09-23T06:31:43.426Z,101211.56
2022-09-23T06:36:43.148Z,101175.47
2022-09-23T06:41:37.716Z,101209.69
2022-09-23T06:46:33.710Z,101203.88
2022-09-23T06:51:27.652Z,101193.88
2022-09-23T06:56:22.779Z,101210.78
2022-09-23T07:01:17.758Z,101215.53
2022-09-23T07:06:11.298Z,101194.81
2022-09-23T07:11:06.906Z,101208.41
2022-09-23T07:16:02.674Z,101223.59
2022-09-23T07:20:59.705Z,101220.75
2022-09-23T07:25:54.471Z,101204.69
2022-09-23T07:30:58.148Z,101224.44
2022-09-23T07:35:54.389Z,101220.84
2022-09-23T07:40:49.467Z,101231.47
2022-09-23T07:45:44.115Z,101229.75
2022-09-23T07:50:40.480Z,101246.69
2022-09-23T07:55:33.779Z,101245.16
2022-09-23T08:00:27.724Z,101258.25
2022-09-23T08:05:20.604Z,101232.13
2022-09-23T08:10:14.487Z,101225.03
2022-09-23T08:15:10.072Z,101217.91
2022-09-23T08:20:04.665Z,101237.69
2022-09-23T08:24:59.435Z,101232.53
2022-09-23T08:29:52.093Z,101215.25
2022-09-23T08:34:46.454Z,101206.53
2022-09-23T08:39:40.434Z,101205.69
2022-09-23T08:45:07.221Z,101223.72
2022-09-23T08:50:21.813Z,101212.59
2022-09-23T08:55:19.618Z,101209.69
2022-09-23T09:00:21.979Z,101226.00
2022-09-23T09:05:21.039Z,101233.16
2022-09-23T09:10:23.284Z,101223.47
2022-09-23T09:15:25.115Z,101204.38
2022-09-23T09:20:30.174Z,101226.88
2022-09-23T09:25:34.414Z,101209.41
2022-09-23T09:30:48.760Z,101186.31
2022-09-23T09:36:21.619Z,101208.72
2022-09-23T09:41:18.676Z,101180.22
2022-09-23T09:47:02.051Z,101192.78
2022-09-23T09:52:27.637Z,101182.16
2022-09-23T09:57:35.152Z,101169.72
2022-09-23T10:02:37.270Z,101193.91
2022-09-23T10:07:32.963Z,101179.38
2022-09-23T10:13:06.260Z,101175.53
2022-09-23T10:18:02.706Z,101173.44
2022-09-23T10:22:57.668Z,101184.06
2022-09-23T10:27:50.818Z,101163.34
2022-09-23T10:32:45.714Z,101144.88
2022-09-23T10:37:45.648Z,101161.03
2022-09-23T10:43:02.579Z,101162.53
2022-09-23T10:48:24.532Z,101118.59
2022-09-23T10:53:54.610Z,101151.06
2022-09-23T10:59:14.926Z,101160.31
2022-09-23T11:04:43.749Z,101112.00
2022-09-23T11:10:14.572Z,101147.16
2022-09-23T11:15:23.992Z,101109.84
2022-09-23T11:20:23.612Z,101145.25
2022-09-23T11:25:30.964Z,101133.75
2022-09-23T11:30:39.047Z,101116.31
2022-09-23T11:35:43.139Z,101121.47
2022-09-23T11:40:42.374Z,101109.78
2022-09-23T11:45:52.983Z,101081.31
2022-09-23T11:51:16.151Z,101079.53
2022-09-23T11:56:41.300Z,101100.22
2022-09-23T12:01:50.580Z,101068.13
2022-09-23T12:06:48.725Z,101089.38
2022-09-23T12:11:50.036Z,101092.03
2022-09-23T12:16:42.964Z,101077.81
2022-09-23T12:22:01.549Z,101059.78
2022-09-23T12:27:00.514Z,101079.63
2022-09-23T12:31:54.073Z,101052.97
2022-09-23T12:36:47.853Z,101051.25
2022-09-23T12:41:44.669Z,101042.34
2022-09-23T12:46:55.928Z,101018.06
2022-09-23T12:52:27.141Z,101029.16
2022-09-23T12:57:35.216Z,101023.75
2022-09-23T13:02:48.409Z,101016.81
2022-09-23T13:07:47.595Z,100987.22
2022-09-23T13:12:42.970Z,100988.44
2022-09-23T13:17:45.463Z,100995.56
2022-09-23T13:22:50.287Z,100987.03
2022-09-23T13:27:48.369Z,100986.09
2022-09-23T13:32:53.971Z,100973.84
2022-09-23T13:37:48.920Z,100952.97
2022-09-23T13:42:45.271Z,100970.31
2022-09-23T13:47:43.827Z,100958.94
2022-09-23T13:52:38.091Z,100957.03
2022-09-23T13:57:34.746Z,100932.78
2022-09-23T14:02:31.957Z,100928.22
2022-09-23T14:07:26.003Z,100954.75
2022-09-23T14:12:22.647Z,100909.16
2022-09-23T14:17:20.553Z,100910.47
2022-09-23T14:22:29.339Z,100906.03
2022-09-23T14:27:34.645Z,100912.19
2022-09-23T14:32:29.771Z,100927.47
2022-09-23T14:37:45.563Z,100922.88
2022-09-23T14:42:42.344Z,100917.56
2022-09-23T14:47:35.950Z,100925.53
2022-09-23T14:52:29.345Z,100897.78
2022-09-23T14:57:26.131Z,100908.66
2022-09-23T15:02:32.015Z,100898.00
2022-09-23T15:07:28.890Z,100874.16
2022-09-23T15:12:23.611Z,100878.22
2022-09-23T15:17:25.907Z,100891.28
2022-09-23T15:22:19.801Z,100880.88
2022-09-23T15:27:33.913Z,100890.53
2022-09-23T15:32:27.547Z,100870.94
2022-09-23T15:37:21.725Z,100902.03
2022-09-23T15:42:16.053Z,100898.31
2022-09-23T15:47:17.985Z,100865.31
2022-09-23T15:52:12.565Z,100867.78
2022-09-23T15:57:05.728Z,100882.94
2022-09-23T16:02:02.545Z,100885.91
2022-09-23T16:06:55.487Z,100877.94
2022-09-23T16:11:50.147Z,100844.47
2022-09-23T16:16:45.409Z,100881.25
2022-09-23T16:21:40.785Z,100875.06
2022-09-23T16:26:35.828Z,100859.06
2022-09-23T16:31:32.574Z,100886.75
2022-09-23T16:36:31.771Z,100844.66
2022-09-23T16:41:28.445Z,100881.25
2022-09-23T16:46:30.130Z,100867.78
2022-09-23T16:51:43.769Z,100881.44
2022-09-23T16:56:39.145Z,100879.53
2022-09-23T17:01:51.274Z,100884.94
2022-09-23T17:06:51.817Z,100860.59
2022-09-23T17:11:48.301Z,100878.78
2022-09-23T17:16:42.473Z,100875.06
2022-09-23T17:21:34.963Z,100859.22
2022-09-23T17:26:28.605Z,100874.03
2022-09-23T17:31:22.745Z,100845.19
2022-09-23T17:36:16.500Z,100848.50
2022-09-23T17:41:10.536Z,100880.84
2022-09-23T17:46:08.818Z,100886.59
2022-09-23T17:51:28.730Z,100883.78
2022-09-23T17:56:25.717Z,100890.50
2022-09-23T18:01:27.103Z,100889.34
2022-09-23T18:06:23.094Z,100861.16
2022-09-23T18:11:23.284Z,100896.22
2022-09-23T18:16:16.363Z,100891.31
2022-09-23T18:21:10.910Z,100873.19
2022-09-23T18:26:18.088Z,100918.47
2022-09-23T18:31:11.785Z,100922.28
2022-09-23T18:36:07.487Z,100904.28
2022-09-23T18:41:01.196Z,100903.53
2022-09-23T18:46:01.636Z,100890.78
2022-09-23T18:50:56.026Z,100932.19
2022-09-23T18:55:49.962Z,100919.53
2022-09-23T19:00:44.660Z,100946.59
2022-09-23T19:05:37.911Z,100946.22
2022-09-23T19:10:32.084Z,100941.72
2022-09-23T19:15:25.165Z,100939.63
2022-09-23T19:20:19.447Z,100934.06
2022-09-23T19:25:13.335Z,100931.03
2022-09-23T19:30:11.225Z,100926.00
2022-09-23T19:35:06.053Z,100916.84
2022-09-23T19:39:59.880Z,100929.63
2022-09-23T19:44:57.633Z,100916.84
2022-09-23T19:49:52.664Z,100933.75
2022-09-23T19:54:49.371Z,100936.53
2022-09-23T19:59:42.968Z,100911.72
2022-09-23T20:04:40.631Z,100909.03
2022-09-23T20:09:35.189Z,100926.91
2022-09-23T20:14:28.933Z,100921.25
2022-09-23T20:19:22.398Z,100942.22
2022-09-23T20:24:15.759Z,100928.72
2022-09-23T20:29:11.605Z,100921.88
2022-09-23T20:34:07.784Z,100922.81
2022-09-23T20:39:03.669Z,100923.88
2022-09-23T20:44:00.758Z,100926.81
2022-09-23T20:48:56.052Z,100930.00
2022-09-23T20:54:00.951Z,100933.00
2022-09-23T20:58:56.372Z,100936.22
2022-09-23T21:03:52.724Z,100930.16
2022-09-23T21:08:46.736Z,100932.50
2022-09-23T21:13:46.292Z,100928.06
2022-09-23T21:18:40.258Z,100931.56
2022-09-23T21:23:37.815Z,100912.16
2022-09-23T21:28:34.552Z,100923.88
2022-09-23T21:33:30.323Z,100898.66
2022-09-23T21:38:25.341Z,100923.88
2022-09-23T21:43:23.956Z,100914.81
2022-09-23T21:48:18.890Z,100936.22
2022-09-23T21:53:15.689Z,100930.03
2022-09-23T21:58:11.083Z,100932.66
2022-09-23T22:03:09.750Z,100928.28
2022-09-23T22:08:08.258Z,100924.59
2022-09-23T22:13:03.403Z,100925.44
2022-09-23T22:17:58.740Z,100930.88
2022-09-23T22:22:52.019Z,100919.13
2022-09-23T22:28:04.405Z,100927.34
2022-09-23T22:33:02.072Z,100943.75
2022-09-23T22:37:56.026Z,100943.88
2022-09-23T22:42:50.764Z,100941.09
2022-09-23T22:47:46.150Z,100920.53
2022-09-23T22:52:41.338Z,100930.34
2022-09-23T22:57:34.519Z,100939.56
2022-09-23T23:02:28.769Z,100918.19
2022-09-23T23:07:22.167Z,100937.59
2022-09-23T23:12:17.684Z,100935.97
2022-09-23T23:17:11.761Z,100917.31
2022-09-23T23:22:06.295Z,100914.34
2022-09-23T23:26:59.449Z,100932.34
2022-09-23T23:31:56.920Z,100935.03
2022-09-23T23:36:55.525Z,100938.63
2022-09-23T23:41:52.116Z,100932.59
2022-09-23T23:46:45.951Z,100920.44
2022-09-23T23:51:44.594Z,100913.59
2022-09-23T23:56:38.972Z,100906.94
